Time;durP1;ratioP1;P1;durP2;ratioP2;P2;SDS_P1;SDS_P2;PMS_P1;PMS_P2;Temp;Humidity;BMP_temperature;BMP_pressure;BME280_temperature;BME280_humidity;BME280_pressure;Samples;Min_cycle;Max_cycle;Signal;HPM_P1;HPM_P2
2022/08/25 10:40:13;;;;;;;4.90;2.10;;;27.70;73.80;;;;;;4954789;29;20461;-84
2022/08/25 10:42:49;;;;;;;2.17;2.00;;;27.70;73.80;;;;;;4939314;29;20943;-85
2022/08/25 10:48:44;;;;;;;2.70;2.30;;;27.80;73.90;;;;;;4939489;29;20508;-85
2022/08/25 10:51:29;;;;;;;2.47;2.37;;;27.90;74.00;;;;;;4939311;29;20466;-85
2022/08/25 10:54:01;;;;;;;2.60;2.40;;;27.80;74.10;;;;;;4938567;29;20447;-86
2022/08/25 10:56:34;;;;;;;2.63;2.43;;;27.80;74.10;;;;;;4938918;29;20577;-85
2022/08/25 10:59:19;;;;;;;2.50;2.30;;;27.90;74.20;;;;;;4938933;29;20443;-87
2022/08/25 11:02:11;;;;;;;2.77;2.63;;;27.90;74.10;;;;;;4939079;29;20553;-85
2022/08/25 11:04:41;;;;;;;2.60;2.40;;;27.90;74.20;;;;;;4938742;29;20467;-85
2022/08/25 11:07:11;;;;;;;4.33;2.20;;;27.90;74.30;;;;;;4939006;29;20497;-87
2022/08/25 11:09:42;;;;;;;2.83;2.57;;;27.90;74.20;;;;;;4939069;29;20538;-89
2022/08/25 11:12:15;;;;;;;2.37;2.17;;;27.90;74.10;;;;;;4939000;29;20436;-85
2022/08/25 11:14:49;;;;;;;2.60;2.33;;;27.90;74.20;;;;;;4938587;29;20535;-84
2022/08/25 11:17:20;;;;;;;3.53;2.33;;;27.90;74.30;;;;;;4938600;29;20500;-85
2022/08/25 11:19:49;;;;;;;6.30;2.30;;;27.90;74.40;;;;;;4938218;29;20443;-83
2022/08/25 11:22:22;;;;;;;6.03;2.50;;;27.90;74.30;;;;;;4937805;29;20461;-83
2022/08/25 11:25:02;;;;;;;2.30;2.10;;;27.90;74.30;;;;;;4937594;29;20550;-83
2022/08/25 11:27:38;;;;;;;2.13;2.03;;;28.00;74.50;;;;;;4937862;29;20856;-83
2022/08/25 11:30:08;;;;;;;2.77;2.50;;;28.00;74.70;;;;;;4937904;29;21005;-83
2022/08/25 11:32:36;;;;;;;3.87;3.47;;;28.00;74.80;;;;;;4937827;29;20494;-83
2022/08/25 11:35:06;;;;;;;6.57;3.90;;;28.00;75.00;;;;;;4937235;29;20471;-83
2022/08/25 11:37:34;;;;;;;4.40;4.00;;;28.00;75.10;;;;;;4935917;29;20502;-83
2022/08/25 11:40:18;;;;;;;5.70;4.90;;;28.00;75.10;;;;;;4937219;29;20471;-83
2022/08/25 11:42:59;;;;;;;6.43;4.80;;;28.00;75.00;;;;;;4935271;29;20899;-83
2022/08/25 11:45:56;;;;;;;6.57;5.17;;;28.00;75.20;;;;;;4934077;29;21190;-83
2022/08/25 11:48:35;;;;;;;6.03;5.43;;;28.00;75.20;;;;;;4935930;29;20993;-82
2022/08/25 11:51:06;;;;;;;6.40;4.57;;;28.00;75.30;;;;;;4937518;29;20541;-83
2022/08/25 11:53:34;;;;;;;5.50;5.00;;;28.00;75.40;;;;;;4934201;29;20459;-82
2022/08/25 11:56:04;;;;;;;6.23;5.63;;;28.00;75.50;;;;;;4930106;29;20986;-83
2022/08/25 11:58:39;;;;;;;5.20;4.20;;;28.00;75.70;;;;;;4937062;29;20451;-83
2022/08/25 12:01:10;;;;;;;5.03;4.50;;;28.00;75.70;;;;;;4926931;29;20926;-85
2022/08/25 12:04:12;;;;;;;5.60;5.00;;;28.00;75.70;;;;;;4932499;29;20474;-83
2022/08/25 12:07:17;;;;;;;7.43;5.13;;;28.10;75.70;;;;;;4926594;29;20927;-84
2022/08/25 12:10:13;;;;;;;4.53;4.23;;;28.10;75.70;;;;;;4934583;29;20443;-82
2022/08/25 12:12:57;;;;;;;6.10;5.17;;;28.10;75.70;;;;;;4915343;29;20546;-82
2022/08/25 12:15:28;;;;;;;8.70;4.30;;;28.10;75.60;;;;;;4917306;29;20452;-86
2022/08/25 12:18:11;;;;;;;5.00;4.30;;;28.10;75.40;;;;;;4918021;29;20896;-86
2022/08/25 12:21:09;;;;;;;4.27;3.97;;;28.10;75.10;;;;;;4918515;29;20444;-87
2022/08/25 13:03:15;;;;;;;4.20;3.70;;;27.90;74.70;;;;;;4802344;29;20851;-83
2022/08/25 13:06:05;;;;;;;3.57;3.23;;;28.00;74.90;;;;;;4895213;29;20587;-84
2022/08/25 13:09:06;;;;;;;3.63;3.33;;;27.90;75.10;;;;;;4894983;29;20501;-87
2022/08/25 13:11:42;;;;;;;3.70;3.50;;;28.00;75.20;;;;;;4896977;29;21004;-87
2022/08/25 13:14:18;;;;;;;2.93;2.73;;;28.00;75.10;;;;;;4896977;29;20444;-87
2022/08/25 13:16:54;;;;;;;4.40;3.30;;;28.00;74.90;;;;;;4916557;29;21001;-86
2022/08/25 13:19:21;;;;;;;3.60;3.30;;;28.00;74.80;;;;;;4936852;29;20538;-84
2022/08/25 13:21:50;;;;;;;7.33;3.33;;;28.00;74.80;;;;;;4936618;29;20447;-84
2022/08/25 13:24:22;;;;;;;4.43;3.57;;;28.00;74.90;;;;;;4936340;29;20482;-87
2022/08/25 13:26:53;;;;;;;4.57;3.50;;;28.00;74.90;;;;;;4936562;29;20549;-90
2022/08/25 13:29:23;;;;;;;3.87;3.47;;;28.10;74.90;;;;;;4936806;29;20942;-87
2022/08/25 13:31:56;;;;;;;3.50;3.23;;;28.10;74.80;;;;;;4936584;29;20538;-88
2022/08/25 13:34:26;;;;;;;3.53;3.33;;;28.10;74.70;;;;;;4936573;29;20880;-87
2022/08/25 13:39:39;;;;;;;4.20;3.57;;;28.10;74.90;;;;;;4936566;29;20442;-89
2022/08/25 13:42:13;;;;;;;4.70;3.20;;;28.10;74.90;;;;;;4936233;29;20926;-88
2022/08/25 15:43:50;;;;;;;2.40;2.20;;;28.00;74.50;;;;;;4921824;29;20832;-83
2022/08/25 15:46:22;;;;;;;2.93;2.40;;;28.10;74.70;;;;;;4916079;29;20514;-84
2022/08/25 15:48:49;;;;;;;2.60;2.40;;;28.10;75.10;;;;;;4938054;29;20448;-84
2022/08/25 15:51:17;;;;;;;3.43;2.27;;;28.10;75.10;;;;;;4942712;29;20423;-90
2022/08/25 15:53:44;;;;;;;2.83;2.63;;;28.10;75.00;;;;;;4937553;29;20846;-90
2022/08/25 15:56:13;;;;;;;2.90;2.70;;;28.10;74.90;;;;;;4938076;29;20440;-84
2022/08/25 15:58:40;;;;;;;2.73;2.43;;;28.10;74.80;;;;;;4937916;29;20529;-84
2022/08/25 16:01:12;;;;;;;2.70;2.60;;;28.10;74.80;;;;;;4937168;29;20458;-83
2022/08/25 16:03:39;;;;;;;3.27;2.97;;;28.20;74.90;;;;;;4938147;29;20479;-83
2022/08/25 16:06:07;;;;;;;2.57;2.37;;;28.20;74.80;;;;;;4936799;29;20987;-84
2022/08/25 16:08:34;;;;;;;2.37;2.27;;;28.20;74.80;;;;;;4937502;29;20463;-83
2022/08/25 16:11:01;;;;;;;3.20;3.00;;;28.20;74.70;;;;;;4936837;29;20943;-87
2022/08/25 16:13:28;;;;;;;2.57;2.47;;;28.20;74.70;;;;;;4937371;29;20526;-86
2022/08/25 16:15:55;;;;;;;4.80;2.10;;;28.20;74.40;;;;;;4937878;29;20451;-87
2022/08/25 16:25:17;;;;;;;2.67;2.57;;;28.20;73.60;;;;;;4897726;29;20523;-87
2022/08/25 16:27:45;;;;;;;4.77;2.80;;;28.20;73.70;;;;;;4897428;29;20445;-84
2022/08/25 16:30:15;;;;;;;4.13;2.73;;;28.10;74.00;;;;;;4897798;29;20455;-85
2022/08/25 16:32:42;;;;;;;2.77;2.57;;;28.10;74.20;;;;;;4923306;29;20641;-85
2022/08/25 16:35:12;;;;;;;2.90;2.70;;;28.10;74.30;;;;;;4937243;29;20447;-85
2022/08/25 16:37:39;;;;;;;2.27;2.17;;;28.20;74.50;;;;;;4920247;29;20490;-85
2022/08/25 16:40:12;;;;;;;2.70;2.60;;;28.20;74.50;;;;;;4937143;29;21023;-85
2022/08/25 16:42:38;;;;;;;3.00;2.80;;;28.20;74.50;;;;;;4937016;29;20519;-86
2022/08/25 16:45:06;;;;;;;3.57;2.63;;;28.20;74.50;;;;;;4937140;29;20451;-86
2022/08/25 16:47:36;;;;;;;2.60;2.47;;;28.20;74.50;;;;;;4937279;29;20814;-87
2022/08/25 16:50:07;;;;;;;2.67;2.47;;;28.20;74.40;;;;;;4936738;29;20910;-88
2022/08/25 16:55:20;;;;;;;2.63;2.53;;;28.20;74.30;;;;;;4936707;29;20479;-87
2022/08/25 16:57:52;;;;;;;2.80;2.60;;;28.20;74.30;;;;;;4936778;29;20486;-87
2022/08/25 17:00:22;;;;;;;2.73;2.53;;;28.20;74.30;;;;;;4936662;29;20461;-86
2022/08/25 17:02:53;;;;;;;2.83;2.30;;;28.20;74.20;;;;;;4936328;29;20958;-91
2022/08/25 17:05:20;;;;;;;4.53;2.80;;;28.20;74.00;;;;;;4936698;29;20518;-87
2022/08/25 17:08:27;;;;;;;2.40;2.30;;;28.20;73.70;;;;;;4936557;29;20561;-88
2022/08/25 17:10:37;;;;;;;2.80;2.60;;;28.20;73.70;;;;;;4922370;29;20435;-91
2022/08/25 17:13:04;;;;;;;2.53;2.27;;;28.20;74.10;;;;;;4936196;29;20458;-87
2022/08/25 17:15:32;;;;;;;2.63;2.43;;;28.20;74.20;;;;;;4936494;29;20447;-89
2022/08/25 17:17:59;;;;;;;2.70;2.50;;;28.20;74.20;;;;;;4935946;29;20482;-88
2022/08/25 17:20:26;;;;;;;3.13;2.40;;;28.20;74.20;;;;;;4936403;29;20479;-88
2022/08/25 17:22:54;;;;;;;2.63;2.27;;;28.20;74.20;;;;;;4936186;29;20493;-90
2022/08/25 17:25:21;;;;;;;2.57;2.30;;;28.20;74.20;;;;;;4936270;29;20539;-88
2022/08/25 17:27:48;;;;;;;2.30;2.20;;;28.20;74.20;;;;;;4936073;29;20598;-89
2022/08/25 17:30:15;;;;;;;2.40;2.20;;;28.20;74.20;;;;;;4936049;29;20554;-88
2022/08/25 17:32:42;;;;;;;2.70;2.50;;;28.20;74.20;;;;;;4936040;29;20483;-88
2022/08/25 17:35:09;;;;;;;2.30;2.20;;;28.20;74.10;;;;;;4936115;29;20459;-88
2022/08/25 17:37:36;;;;;;;3.00;2.80;;;28.20;75.00;;;;;;4935944;29;20501;-91
2022/08/25 17:40:06;;;;;;;2.50;2.30;;;28.20;74.00;;;;;;4936430;29;20453;-91
2022/08/25 17:45:16;;;;;;;5.50;2.50;;;28.20;73.70;;;;;;4949611;29;20443;-92
2022/08/25 17:47:43;;;;;;;2.97;2.77;;;28.20;73.80;;;;;;4936741;29;20455;-92
2022/08/25 17:50:10;;;;;;;2.97;2.77;;;28.20;73.80;;;;;;4936413;29;20464;-92
2022/08/25 17:52:38;;;;;;;5.33;2.50;;;28.20;73.80;;;;;;4936700;29;20540;-92
2022/08/25 17:55:07;;;;;;;2.50;2.40;;;28.20;73.80;;;;;;4936817;29;20451;-92
2022/08/25 17:57:34;;;;;;;2.63;2.50;;;28.20;73.80;;;;;;4935874;29;20467;-92
2022/08/25 18:00:04;;;;;;;3.40;2.67;;;28.20;73.90;;;;;;4936742;29;20530;-91
2022/08/25 18:02:30;;;;;;;2.30;2.20;;;28.20;73.80;;;;;;4936445;29;21196;-90
2022/08/25 18:04:57;;;;;;;2.67;2.50;;;28.20;73.80;;;;;;4937257;29;20457;-89
2022/08/25 18:07:24;;;;;;;3.33;3.13;;;28.20;73.90;;;;;;4929139;29;20502;-89
2022/08/25 18:09:52;;;;;;;2.97;2.77;;;28.20;73.90;;;;;;4935680;29;20447;-89
2022/08/25 18:12:21;;;;;;;2.70;2.47;;;28.20;74.00;;;;;;4935766;29;20457;-89
2022/08/25 18:14:48;;;;;;;3.03;2.70;;;28.20;74.10;;;;;;4935862;29;20447;-88
2022/08/25 18:17:15;;;;;;;2.77;2.57;;;28.20;75.00;;;;;;4935553;29;20461;-90
2022/08/25 18:19:42;;;;;;;3.10;2.90;;;28.20;74.20;;;;;;4936266;29;20502;-89
2022/08/25 18:22:09;;;;;;;2.50;2.40;;;28.20;74.20;;;;;;4936841;29;20891;-89
2022/08/25 18:24:36;;;;;;;5.73;3.63;;;28.20;74.20;;;;;;4936495;29;20535;-88
2022/08/25 18:27:03;;;;;;;3.60;2.47;;;28.20;74.20;;;;;;4936891;29;20541;-88
2022/08/25 18:29:31;;;;;;;10.80;3.17;;;28.20;74.30;;;;;;4937960;29;20439;-88
2022/08/25 18:31:58;;;;;;;4.07;3.13;;;28.30;74.40;;;;;;4940155;29;20514;-89
2022/08/25 18:34:26;;;;;;;3.50;3.10;;;28.20;74.30;;;;;;4939704;29;20447;-88
2022/08/25 18:36:52;;;;;;;3.47;2.97;;;28.20;74.30;;;;;;4939302;29;20475;-88
2022/08/25 18:42:06;;;;;;;2.53;2.43;;;28.20;74.40;;;;;;4939462;29;20926;-92
2022/08/25 18:44:34;;;;;;;3.50;2.90;;;28.20;74.40;;;;;;4938970;29;20538;-86
2022/08/25 18:47:01;;;;;;;4.17;2.53;;;28.20;74.40;;;;;;4939202;29;20543;-86
2022/08/25 18:49:28;;;;;;;4.27;3.20;;;28.20;74.80;;;;;;4939227;29;20534;-87
2022/08/25 18:51:55;;;;;;;4.40;4.10;;;28.20;74.30;;;;;;4939248;29;20439;-87
2022/08/25 18:54:22;;;;;;;4.00;3.70;;;28.20;74.30;;;;;;4939012;29;20453;-86
2022/08/25 18:56:49;;;;;;;4.23;3.83;;;28.20;74.20;;;;;;4939136;29;20455;-87
2022/08/25 18:59:15;;;;;;;3.80;3.60;;;28.30;74.30;;;;;;4938638;29;20491;-87
2022/08/25 19:01:44;;;;;;;3.67;3.33;;;28.30;74.30;;;;;;4938436;29;20459;-86
2022/08/25 19:04:13;;;;;;;4.97;3.77;;;28.30;74.30;;;;;;4938718;29;20891;-87
2022/08/25 19:06:42;;;;;;;10.60;4.47;;;28.30;74.30;;;;;;4938529;29;20463;-87
2022/08/25 19:09:09;;;;;;;4.60;4.30;;;28.30;74.30;;;;;;4938964;29;20844;-88
2022/08/25 19:11:36;;;;;;;3.37;3.17;;;28.30;74.30;;;;;;4938407;29;20490;-86
2022/08/25 19:14:03;;;;;;;3.77;3.47;;;28.30;74.30;;;;;;4938821;29;20463;-87
2022/08/25 19:16:34;;;;;;;3.73;3.53;;;28.30;74.30;;;;;;4938743;29;20538;-88
2022/08/25 19:19:04;;;;;;;4.13;3.83;;;28.30;74.30;;;;;;4938754;29;20851;-87
2022/08/25 19:21:30;;;;;;;4.30;3.90;;;28.30;74.30;;;;;;4938869;29;20435;-86
2022/08/25 19:23:58;;;;;;;4.27;3.60;;;28.30;74.30;;;;;;4938915;29;20451;-87
2022/08/25 19:26:25;;;;;;;5.90;4.20;;;28.30;74.30;;;;;;4938369;29;20451;-87
2022/08/25 19:28:52;;;;;;;4.03;3.73;;;28.30;74.30;;;;;;4938827;29;20539;-87
2022/08/25 19:31:29;;;;;;;4.37;4.07;;;28.30;74.50;;;;;;4938403;29;20501;-87
2022/08/25 19:33:58;;;;;;;4.00;3.60;;;28.20;74.40;;;;;;4938488;29;20446;-87
2022/08/25 19:36:28;;;;;;;3.97;3.67;;;28.30;74.40;;;;;;4938312;29;20463;-87
2022/08/25 19:38:59;;;;;;;4.30;3.63;;;28.30;74.40;;;;;;4938521;29;20549;-86
2022/08/25 19:41:29;;;;;;;4.23;3.93;;;28.30;74.40;;;;;;4938120;29;20455;-87
2022/08/25 19:44:00;;;;;;;3.57;3.37;;;28.30;74.30;;;;;;4938513;29;20542;-87
2022/08/25 19:46:31;;;;;;;4.00;3.80;;;28.30;74.30;;;;;;4938339;29;20534;-87
2022/08/25 19:48:58;;;;;;;3.70;3.37;;;28.30;74.30;;;;;;4938297;29;20537;-87
2022/08/25 19:51:29;;;;;;;3.73;3.43;;;28.30;74.30;;;;;;4938192;29;20466;-87
2022/08/25 19:53:56;;;;;;;3.20;2.90;;;28.30;74.30;;;;;;4938470;29;20467;-87
2022/08/25 19:56:25;;;;;;;3.90;3.60;;;28.30;74.30;;;;;;4937873;29;20498;-86
2022/08/25 19:58:52;;;;;;;4.37;4.00;;;28.30;74.30;;;;;;4937772;29;20494;-87
2022/08/25 20:01:19;;;;;;;3.60;3.40;;;28.30;74.30;;;;;;4937907;29;20483;-87
2022/08/25 20:03:46;;;;;;;3.10;2.83;;;28.30;74.30;;;;;;4937898;29;20454;-87
2022/08/25 20:06:13;;;;;;;3.63;3.30;;;28.30;74.30;;;;;;4937703;29;20467;-87
2022/08/25 20:08:42;;;;;;;3.77;3.40;;;28.30;74.20;;;;;;4938060;29;20537;-87
2022/08/25 20:11:09;;;;;;;4.37;3.40;;;28.30;74.30;;;;;;4937723;29;21011;-87
2022/08/25 20:13:37;;;;;;;3.37;2.90;;;28.30;74.30;;;;;;4937897;29;20660;-87
2022/08/25 20:16:04;;;;;;;3.37;3.17;;;28.30;74.20;;;;;;4937422;29;20471;-86
2022/08/25 20:18:31;;;;;;;3.07;2.87;;;28.30;74.20;;;;;;4936805;29;21047;-87
2022/08/25 20:20:58;;;;;;;3.03;2.83;;;28.30;74.30;;;;;;4937567;29;20999;-87
2022/08/25 20:26:11;;;;;;;3.43;3.23;;;28.30;74.30;;;;;;4937396;29;20439;-87
2022/08/25 20:28:38;;;;;;;3.30;3.10;;;28.30;74.30;;;;;;4937147;29;20479;-87
2022/08/25 20:31:05;;;;;;;3.10;2.90;;;28.30;74.30;;;;;;4937166;29;20494;-87
2022/08/25 20:33:32;;;;;;;3.20;2.90;;;28.30;75.20;;;;;;4937794;29;20871;-87
2022/08/25 20:36:00;;;;;;;3.60;3.40;;;28.30;74.30;;;;;;4937156;29;20998;-87
2022/08/25 20:38:29;;;;;;;3.10;2.90;;;28.30;74.30;;;;;;4937007;29;20490;-87
2022/08/25 20:40:57;;;;;;;3.17;2.97;;;28.30;74.30;;;;;;4937306;29;20470;-87
2022/08/25 20:43:26;;;;;;;3.40;3.10;;;28.30;75.20;;;;;;4937370;29;20526;-87
2022/08/25 20:46:00;;;;;;;3.53;3.33;;;28.30;74.20;;;;;;4937108;29;20939;-87
2022/08/25 20:48:27;;;;;;;4.20;2.90;;;28.30;74.20;;;;;;4937156;29;20455;-87
2022/08/25 20:50:54;;;;;;;3.37;3.17;;;28.30;74.20;;;;;;4937172;29;20455;-87
2022/08/25 20:53:21;;;;;;;3.97;3.57;;;28.20;74.40;;;;;;4936359;29;20462;-87
2022/08/25 20:55:48;;;;;;;3.77;3.37;;;28.20;74.40;;;;;;4936957;29;20550;-88
2022/08/25 20:58:15;;;;;;;3.10;2.90;;;28.20;74.40;;;;;;4937031;29;20457;-88
2022/08/25 21:00:44;;;;;;;3.60;3.40;;;28.20;74.40;;;;;;4936504;29;20538;-91
2022/08/25 21:03:12;;;;;;;3.40;3.20;;;28.20;74.30;;;;;;4936854;29;20960;-88
2022/08/25 21:05:40;;;;;;;3.17;2.97;;;28.20;74.40;;;;;;4937017;29;20506;-91
2022/08/25 21:08:06;;;;;;;3.03;2.83;;;28.20;74.30;;;;;;4936176;29;20519;-90
2022/08/25 21:10:33;;;;;;;4.63;4.17;;;28.20;74.30;;;;;;4936878;29;20458;-88
2022/08/25 21:13:00;;;;;;;3.37;3.17;;;28.30;74.40;;;;;;4936680;29;20542;-88
2022/08/25 21:15:28;;;;;;;3.77;3.47;;;28.30;74.40;;;;;;4936900;29;20530;-88
2022/08/25 21:17:56;;;;;;;3.20;3.00;;;28.30;74.40;;;;;;4936271;29;20451;-89
2022/08/25 21:20:24;;;;;;;3.03;2.80;;;28.30;74.30;;;;;;4936650;29;20582;-87
2022/08/25 21:22:52;;;;;;;3.00;2.80;;;28.30;74.30;;;;;;4936569;29;20498;-86
2022/08/25 21:25:20;;;;;;;3.23;2.80;;;28.30;74.30;;;;;;4936587;29;20447;-86
2022/08/25 21:27:46;;;;;;;3.00;2.83;;;28.20;74.20;;;;;;4936564;29;20873;-87
2022/08/25 21:30:13;;;;;;;2.93;2.80;;;28.20;74.20;;;;;;4936340;29;21026;-88
2022/08/25 21:32:40;;;;;;;3.27;2.97;;;28.20;74.20;;;;;;4936269;29;20493;-89
2022/08/25 21:35:09;;;;;;;3.13;2.87;;;28.30;74.30;;;;;;4936503;29;20479;-89
2022/08/25 21:37:36;;;;;;;3.17;2.97;;;28.30;74.30;;;;;;4936359;29;20560;-87
2022/08/25 21:40:04;;;;;;;3.73;3.43;;;28.20;75.20;;;;;;4936471;29;20594;-87
2022/08/25 21:42:31;;;;;;;5.80;3.30;;;28.20;74.30;;;;;;4936401;29;20506;-87
2022/08/25 21:44:58;;;;;;;7.73;3.20;;;28.30;74.40;;;;;;4936326;29;20522;-87
2022/08/25 21:47:25;;;;;;;3.43;3.17;;;28.30;74.30;;;;;;4936124;29;20527;-87
2022/08/25 21:49:52;;;;;;;3.47;3.27;;;28.30;74.30;;;;;;4936109;29;20939;-87
2022/08/25 21:52:20;;;;;;;2.50;2.30;;;28.30;74.30;;;;;;4936251;29;20905;-87
2022/08/25 21:54:47;;;;;;;3.37;3.07;;;28.30;74.20;;;;;;4936161;29;20463;-87
2022/08/25 21:57:16;;;;;;;3.40;3.20;;;28.30;74.20;;;;;;4936336;29;20538;-87
2022/08/25 21:59:43;;;;;;;2.70;2.50;;;28.30;74.20;;;;;;4935860;29;20497;-87
2022/08/25 22:02:12;;;;;;;3.23;2.90;;;28.30;74.30;;;;;;4936174;29;20462;-87
2022/08/25 22:04:40;;;;;;;3.03;2.87;;;28.30;74.20;;;;;;4937572;29;20455;-87
2022/08/25 22:07:08;;;;;;;2.73;2.53;;;28.30;74.20;;;;;;4939872;29;20456;-87
2022/08/25 22:09:37;;;;;;;3.17;2.97;;;28.30;74.30;;;;;;4939864;29;20447;-87
2022/08/25 22:12:05;;;;;;;2.87;2.67;;;28.30;74.30;;;;;;4940000;29;20447;-87
2022/08/25 22:14:32;;;;;;;3.00;2.77;;;28.30;74.30;;;;;;4939858;29;20934;-88
2022/08/25 22:16:59;;;;;;;3.00;2.80;;;28.30;74.30;;;;;;4939735;29;20442;-87
2022/08/25 22:19:27;;;;;;;2.97;2.77;;;28.30;75.20;;;;;;4939559;29;21010;-87
2022/08/25 22:21:54;;;;;;;3.57;3.23;;;28.30;74.30;;;;;;4939757;29;20810;-87
2022/08/25 22:24:21;;;;;;;2.70;2.53;;;28.30;74.30;;;;;;4939433;29;20981;-87
2022/08/25 22:26:51;;;;;;;2.90;2.70;;;28.30;74.30;;;;;;4940096;29;20797;-87
2022/08/25 22:29:18;;;;;;;3.20;3.00;;;28.30;74.30;;;;;;4939718;29;20450;-87
2022/08/25 22:31:45;;;;;;;2.83;2.67;;;28.30;74.30;;;;;;4939540;29;20486;-87
2022/08/25 22:34:12;;;;;;;3.00;2.80;;;28.30;74.30;;;;;;4939624;29;20442;-87
2022/08/25 22:36:39;;;;;;;2.73;2.63;;;28.30;74.30;;;;;;4939570;29;20548;-87
2022/08/25 22:39:07;;;;;;;3.23;3.10;;;28.30;74.30;;;;;;4939280;29;20490;-87
2022/08/25 22:41:35;;;;;;;3.10;2.80;;;28.30;74.30;;;;;;4939638;29;20541;-87
2022/08/25 22:44:05;;;;;;;3.20;3.07;;;28.30;74.30;;;;;;4939470;29;20941;-87
2022/08/25 22:46:33;;;;;;;2.67;2.57;;;28.30;74.30;;;;;;4939284;29;20465;-87
2022/08/25 22:49:00;;;;;;;2.70;2.60;;;28.30;74.30;;;;;;4939316;29;20443;-87
2022/08/25 22:51:30;;;;;;;3.07;2.87;;;28.30;75.10;;;;;;4939306;29;20539;-87
2022/08/25 22:53:57;;;;;;;2.57;2.37;;;28.30;74.30;;;;;;4939168;29;20467;-87
2022/08/25 22:56:28;;;;;;;3.10;3.00;;;28.30;74.30;;;;;;4938988;29;20443;-87
2022/08/25 22:58:56;;;;;;;3.23;3.00;;;28.30;74.30;;;;;;4939023;29;20570;-87
2022/08/25 23:01:24;;;;;;;4.30;2.60;;;28.30;74.30;;;;;;4939599;29;20446;-87
2022/08/25 23:03:53;;;;;;;2.67;2.57;;;28.30;74.30;;;;;;4939696;29;20539;-87
2022/08/25 23:06:22;;;;;;;2.93;2.80;;;28.30;74.30;;;;;;4939600;29;20450;-88
2022/08/25 23:08:49;;;;;;;3.00;2.80;;;28.30;74.30;;;;;;4938835;29;20450;-87
2022/08/25 23:11:17;;;;;;;2.63;2.43;;;28.30;74.30;;;;;;4938757;29;20938;-87
2022/08/25 23:13:45;;;;;;;3.50;3.30;;;28.30;74.20;;;;;;4939136;29;20477;-87
2022/08/25 23:16:12;;;;;;;3.17;2.97;;;28.30;74.30;;;;;;4938653;29;20444;-87
2022/08/25 23:18:43;;;;;;;2.83;2.70;;;28.30;74.30;;;;;;4938695;29;20449;-87
2022/08/25 23:23:54;;;;;;;2.90;2.80;;;28.30;74.30;;;;;;4939235;29;20446;-88
2022/08/25 23:26:22;;;;;;;2.60;2.50;;;28.20;74.30;;;;;;4938476;29;20452;-87
2022/08/25 23:28:49;;;;;;;2.63;2.53;;;28.30;74.30;;;;;;4938945;29;20451;-87
2022/08/25 23:31:17;;;;;;;2.53;2.43;;;28.20;74.20;;;;;;4938539;29;20486;-87
2022/08/25 23:33:45;;;;;;;2.70;2.60;;;28.30;74.30;;;;;;4938343;29;20447;-87
2022/08/25 23:36:14;;;;;;;3.20;3.07;;;28.30;74.30;;;;;;4938428;29;20520;-87
2022/08/25 23:38:43;;;;;;;2.43;2.33;;;28.20;74.30;;;;;;4938511;29;20541;-87
2022/08/25 23:41:12;;;;;;;3.33;3.13;;;28.20;74.20;;;;;;4938447;29;20494;-87
2022/08/25 23:43:40;;;;;;;2.50;2.40;;;28.30;74.30;;;;;;4938468;29;20453;-87
2022/08/25 23:46:06;;;;;;;3.33;3.13;;;28.20;74.30;;;;;;4938344;29;20446;-87
2022/08/25 23:48:34;;;;;;;2.90;2.80;;;28.20;74.30;;;;;;4938125;29;20546;-87
2022/08/25 23:51:02;;;;;;;3.10;3.00;;;28.20;74.30;;;;;;4938330;29;20457;-87
2022/08/25 23:53:30;;;;;;;2.87;2.77;;;28.30;74.40;;;;;;4938219;29;20885;-87
2022/08/25 23:55:58;;;;;;;2.63;2.53;;;28.20;74.30;;;;;;4938229;29;20491;-87
2022/08/25 23:58:26;;;;;;;2.80;2.70;;;28.20;74.30;;;;;;4938011;29;20459;-87
